Time;durP1;ratioP1;P1;durP2;ratioP2;P2;SDS_P1;SDS_P2;PMS_P1;PMS_P2;Temp;Humidity;BMP_temperature;BMP_pressure;BME280_temperature;BME280_humidity;BME280_pressure;Samples;Min_cycle;Max_cycle;Signal;HPM_P1;HPM_P2
2022/07/07 00:01:34;;;;;;;3.38;2.00;;;19.10;67.60;;;;;;5048391;28;20507;-78
2022/07/07 00:04:02;;;;;;;2.88;1.77;;;19.00;67.60;;;;;;5037481;28;20060;-78
2022/07/07 00:06:28;;;;;;;3.97;1.95;;;19.00;67.90;;;;;;5037302;28;20022;-78
2022/07/07 00:08:54;;;;;;;5.25;2.20;;;19.00;67.70;;;;;;5037494;28;20057;-78
2022/07/07 00:11:21;;;;;;;6.00;2.13;;;18.90;67.80;;;;;;5037346;28;20578;-78
2022/07/07 00:13:53;;;;;;;4.95;1.70;;;18.90;67.90;;;;;;5037009;28;20120;-77
2022/07/07 00:16:19;;;;;;;3.00;1.70;;;18.80;67.90;;;;;;5037373;28;20025;-78
2022/07/07 00:18:45;;;;;;;3.67;1.90;;;18.80;68.20;;;;;;5049638;28;20525;-78
2022/07/07 00:21:11;;;;;;;5.72;2.10;;;18.80;67.80;;;;;;5037192;28;20028;-78
2022/07/07 00:23:37;;;;;;;5.82;1.98;;;18.80;67.90;;;;;;5035548;28;20033;-78
2022/07/07 00:26:03;;;;;;;5.35;2.00;;;18.80;68.00;;;;;;5036992;28;20017;-78
2022/07/07 00:28:29;;;;;;;8.20;2.30;;;18.80;68.00;;;;;;5036706;28;20030;-78
2022/07/07 00:30:54;;;;;;;6.13;1.77;;;18.70;67.70;;;;;;5036152;28;20036;-77
2022/07/07 00:33:20;;;;;;;5.20;1.52;;;18.70;68.10;;;;;;5035726;28;20095;-78
2022/07/07 00:35:46;;;;;;;3.03;1.67;;;18.70;68.20;;;;;;5037222;28;20029;-78
2022/07/07 00:38:11;;;;;;;5.75;1.85;;;18.70;68.10;;;;;;5036891;28;20411;-78
2022/07/07 00:40:37;;;;;;;3.22;1.55;;;18.70;68.00;;;;;;5037139;28;20025;-78
2022/07/07 00:43:03;;;;;;;2.67;1.55;;;18.80;67.90;;;;;;5036310;28;20143;-78
2022/07/07 00:45:29;;;;;;;3.58;1.58;;;18.80;67.80;;;;;;5037080;28;20064;-78
2022/07/07 00:47:54;;;;;;;4.65;1.52;;;18.70;67.90;;;;;;5036790;28;20108;-78
2022/07/07 00:50:20;;;;;;;5.88;1.90;;;18.70;68.10;;;;;;5036823;28;20071;-77
2022/07/07 00:52:46;;;;;;;3.67;1.58;;;18.60;67.70;;;;;;5056136;28;20530;-78
2022/07/07 00:55:12;;;;;;;4.32;1.77;;;18.60;68.00;;;;;;5056532;28;20021;-78
2022/07/07 00:57:38;;;;;;;3.35;1.40;;;18.60;68.20;;;;;;5056303;28;20035;-78
2022/07/07 01:00:10;;;;;;;4.45;1.70;;;18.50;68.10;;;;;;5046401;28;20013;-78
2022/07/07 01:02:36;;;;;;;4.25;1.75;;;18.50;68.00;;;;;;5056513;28;20045;-78
2022/07/07 01:05:07;;;;;;;3.88;1.20;;;18.50;68.30;;;;;;5055151;28;20025;-77
2022/07/07 01:07:33;;;;;;;4.15;1.50;;;18.40;68.30;;;;;;5050132;28;20025;-77
2022/07/07 01:09:59;;;;;;;5.15;1.50;;;18.40;68.30;;;;;;5036280;28;20025;-78
2022/07/07 01:12:31;;;;;;;5.65;1.75;;;18.30;68.80;;;;;;5036140;28;20024;-78
2022/07/07 01:14:57;;;;;;;1.98;1.10;;;18.40;68.80;;;;;;5034739;28;20021;-78
2022/07/07 01:17:23;;;;;;;3.97;1.48;;;18.40;68.30;;;;;;5052718;28;20033;-78
2022/07/07 01:19:48;;;;;;;6.88;1.70;;;18.40;68.50;;;;;;5048454;28;20932;-78
2022/07/07 01:22:16;;;;;;;6.05;1.23;;;18.30;68.40;;;;;;5035068;28;20029;-77
2022/07/07 01:24:43;;;;;;;4.13;1.30;;;18.20;68.20;;;;;;5040290;28;20025;-78
2022/07/07 01:27:19;;;;;;;4.90;1.08;;;18.20;69.20;;;;;;5054733;28;20128;-78
2022/07/07 01:29:50;;;;;;;2.70;1.25;;;18.00;69.40;;;;;;5055824;28;20032;-78
2022/07/07 01:32:17;;;;;;;4.57;1.10;;;18.00;69.70;;;;;;5050943;28;20039;-78
2022/07/07 01:34:45;;;;;;;3.67;1.15;;;18.00;69.60;;;;;;5034692;28;20025;-78
2022/07/07 01:37:11;;;;;;;4.72;1.10;;;18.00;69.60;;;;;;5034197;28;20468;-78
2022/07/07 01:39:39;;;;;;;3.05;1.23;;;18.00;70.00;;;;;;5035542;28;20088;-78
2022/07/07 01:42:06;;;;;;;2.45;0.98;;;18.00;69.80;;;;;;5034505;28;20510;-78
2022/07/07 01:44:52;;;;;;;1.75;1.20;;;17.90;70.00;;;;;;5035748;28;20040;-78
2022/07/07 01:47:19;;;;;;;3.45;1.17;;;18.00;69.80;;;;;;5035511;28;20069;-78
2022/07/07 01:49:46;;;;;;;3.03;1.17;;;18.00;69.10;;;;;;5035522;28;20021;-78
2022/07/07 01:52:12;;;;;;;1.98;0.90;;;18.00;69.80;;;;;;5042172;28;20032;-77
2022/07/07 01:54:38;;;;;;;5.45;1.13;;;18.00;70.00;;;;;;5055105;28;20025;-78
2022/07/07 01:57:05;;;;;;;2.78;1.00;;;18.00;69.70;;;;;;5040825;28;20100;-77
2022/07/07 01:59:31;;;;;;;5.18;1.48;;;17.90;69.80;;;;;;5035491;28;20071;-78
2022/07/07 02:01:57;;;;;;;5.53;1.35;;;17.80;70.00;;;;;;5042231;28;20727;-78
2022/07/07 02:04:23;;;;;;;2.17;1.10;;;17.80;70.10;;;;;;5055358;28;20036;-78
2022/07/07 02:06:49;;;;;;;6.00;1.08;;;17.70;69.60;;;;;;5055275;28;20096;-78
2022/07/07 02:09:15;;;;;;;4.95;1.30;;;17.70;70.10;;;;;;5048307;28;20456;-78
2022/07/07 02:11:41;;;;;;;6.35;1.02;;;17.70;70.30;;;;;;5033450;28;20037;-77
2022/07/07 02:14:06;;;;;;;4.18;1.13;;;17.70;70.50;;;;;;5033802;28;20084;-78
2022/07/07 02:16:36;;;;;;;2.50;1.05;;;17.70;70.50;;;;;;5034155;28;20057;-78
2022/07/07 02:19:06;;;;;;;2.30;1.00;;;17.70;70.00;;;;;;5035497;28;20029;-77
2022/07/07 02:21:33;;;;;;;5.05;1.40;;;17.60;70.60;;;;;;5034034;28;20044;-77
2022/07/07 02:23:59;;;;;;;4.85;1.30;;;17.60;70.70;;;;;;5035003;28;20036;-77
2022/07/07 02:26:25;;;;;;;5.95;1.30;;;17.60;70.30;;;;;;5033983;28;20025;-77
2022/07/07 02:28:51;;;;;;;6.30;1.45;;;17.50;70.70;;;;;;5034722;28;20017;-77
2022/07/07 02:31:17;;;;;;;3.50;1.35;;;17.50;70.50;;;;;;5035171;28;20063;-77
2022/07/07 02:33:43;;;;;;;9.68;1.42;;;17.50;70.60;;;;;;5033681;28;20116;-77
2022/07/07 02:36:12;;;;;;;4.45;1.70;;;17.50;70.30;;;;;;5034974;28;20052;-77
2022/07/07 02:38:39;;;;;;;3.38;1.40;;;17.60;69.90;;;;;;5034101;28;20038;-77
2022/07/07 02:41:05;;;;;;;4.30;1.38;;;17.60;70.00;;;;;;5035114;28;20033;-77
2022/07/07 02:43:32;;;;;;;2.15;1.13;;;17.50;70.30;;;;;;5033601;28;20029;-77
2022/07/07 02:45:58;;;;;;;1.40;0.82;;;17.50;69.70;;;;;;5033765;28;20036;-77
2022/07/07 02:48:25;;;;;;;4.68;1.35;;;17.50;70.40;;;;;;5034910;28;20032;-77
2022/07/07 02:50:51;;;;;;;5.50;1.17;;;17.40;70.70;;;;;;5034981;28;20037;-77
2022/07/07 02:53:21;;;;;;;4.22;1.02;;;17.40;70.90;;;;;;5035193;28;20475;-77
2022/07/07 02:55:47;;;;;;;4.10;1.63;;;17.40;70.80;;;;;;5033667;28;20400;-77
2022/07/07 02:58:19;;;;;;;1.85;0.95;;;17.40;71.00;;;;;;5033451;28;20025;-77
2022/07/07 03:00:46;;;;;;;3.55;1.33;;;17.40;70.90;;;;;;5044218;28;20036;-77
2022/07/07 03:03:11;;;;;;;3.10;1.10;;;17.40;70.90;;;;;;5054545;28;20045;-77
2022/07/07 03:05:37;;;;;;;4.30;1.17;;;17.30;71.10;;;;;;5035842;28;20063;-77
2022/07/07 03:08:03;;;;;;;6.47;1.13;;;17.30;71.10;;;;;;5033431;28;20025;-77
2022/07/07 03:10:29;;;;;;;4.22;1.38;;;17.20;70.90;;;;;;5034711;28;20033;-77
2022/07/07 03:12:55;;;;;;;7.55;1.20;;;17.30;70.80;;;;;;5037180;28;20066;-77
2022/07/07 03:15:21;;;;;;;3.33;1.20;;;17.20;70.60;;;;;;5053420;28;20017;-77
2022/07/07 03:17:48;;;;;;;6.55;1.50;;;17.20;71.00;;;;;;5054538;28;20545;-77
2022/07/07 03:20:17;;;;;;;4.88;1.40;;;17.10;70.90;;;;;;5053048;28;20115;-78
2022/07/07 03:22:43;;;;;;;3.60;1.38;;;17.10;70.80;;;;;;5055025;28;20021;-77
2022/07/07 03:25:10;;;;;;;4.22;1.83;;;17.10;71.80;;;;;;5058149;28;20033;-77
2022/07/07 03:27:39;;;;;;;2.90;1.08;;;17.10;72.00;;;;;;5046196;28;20400;-77
2022/07/07 03:30:07;;;;;;;4.03;1.58;;;17.10;71.90;;;;;;5038258;28;20079;-77
2022/07/07 03:32:33;;;;;;;3.90;1.55;;;17.10;72.20;;;;;;5038324;28;20021;-77
2022/07/07 03:34:59;;;;;;;2.00;1.20;;;17.20;72.10;;;;;;5038109;28;20034;-77
2022/07/07 03:37:25;;;;;;;4.43;1.50;;;17.20;71.70;;;;;;5039025;28;20488;-77
2022/07/07 03:39:50;;;;;;;3.13;1.52;;;17.10;71.80;;;;;;5057717;28;20219;-77
2022/07/07 03:42:16;;;;;;;5.07;1.50;;;17.00;72.00;;;;;;5057718;28;20429;-77
2022/07/07 03:44:44;;;;;;;2.25;1.40;;;17.00;72.10;;;;;;5057848;28;20060;-77
2022/07/07 03:47:11;;;;;;;4.90;1.27;;;17.00;72.50;;;;;;5041477;28;20053;-77
2022/07/07 03:49:37;;;;;;;4.72;1.20;;;17.00;72.60;;;;;;5037859;28;20060;-77
2022/07/07 03:52:04;;;;;;;4.95;1.33;;;16.90;72.10;;;;;;5036510;28;20045;-77
2022/07/07 03:54:29;;;;;;;3.53;1.25;;;17.00;72.30;;;;;;5037538;28;20042;-77
2022/07/07 03:56:55;;;;;;;5.15;1.58;;;17.00;72.90;;;;;;5037335;28;20506;-77
2022/07/07 03:59:21;;;;;;;3.47;1.45;;;17.00;72.30;;;;;;5037663;28;20056;-77
2022/07/07 04:01:49;;;;;;;3.97;1.23;;;17.00;73.00;;;;;;5038375;28;20856;-77
2022/07/07 04:04:16;;;;;;;7.20;1.50;;;16.90;72.90;;;;;;5037252;28;20110;-77
2022/07/07 04:06:44;;;;;;;2.70;1.35;;;16.90;72.80;;;;;;5037589;28;20033;-77
2022/07/07 04:09:10;;;;;;;3.92;1.55;;;16.90;72.30;;;;;;5036390;28;20036;-77
2022/07/07 04:11:35;;;;;;;3.25;1.40;;;16.90;72.70;;;;;;5037521;28;20033;-77
2022/07/07 04:14:02;;;;;;;3.65;1.58;;;16.90;72.90;;;;;;5036993;28;20028;-77
2022/07/07 04:16:29;;;;;;;4.53;1.25;;;16.90;72.70;;;;;;5037188;28;20040;-77
2022/07/07 04:18:55;;;;;;;3.65;1.20;;;16.90;72.50;;;;;;5056531;28;20047;-77
2022/07/07 04:21:21;;;;;;;3.60;1.20;;;16.90;72.60;;;;;;5052778;28;20029;-77
2022/07/07 04:23:46;;;;;;;3.33;1.30;;;16.90;72.70;;;;;;5035829;28;20030;-77
2022/07/07 04:26:12;;;;;;;5.47;1.98;;;16.90;72.60;;;;;;5037095;28;20148;-77
2022/07/07 04:28:38;;;;;;;4.03;1.58;;;16.90;72.40;;;;;;5037023;28;20057;-78
2022/07/07 04:31:03;;;;;;;2.83;1.13;;;16.80;72.90;;;;;;5035441;28;20033;-77
2022/07/07 04:33:29;;;;;;;5.28;1.30;;;16.80;72.80;;;;;;5035145;28;20041;-77
2022/07/07 04:35:55;;;;;;;6.65;1.52;;;16.80;73.20;;;;;;5036683;28;20018;-77
2022/07/07 04:38:20;;;;;;;7.10;2.20;;;16.90;73.10;;;;;;5037227;28;20017;-79
2022/07/07 04:40:46;;;;;;;5.72;1.52;;;16.90;73.50;;;;;;5036804;28;20779;-80
2022/07/07 04:43:12;;;;;;;6.47;1.60;;;16.90;74.40;;;;;;5036626;28;20025;-80
2022/07/07 04:45:37;;;;;;;3.35;1.80;;;16.90;74.10;;;;;;5036526;28;20033;-80
2022/07/07 04:48:03;;;;;;;4.50;1.77;;;16.90;74.60;;;;;;5035587;28;20384;-80
2022/07/07 04:50:29;;;;;;;5.05;1.67;;;16.90;74.40;;;;;;5036310;28;20029;-80
2022/07/07 04:52:55;;;;;;;4.05;1.65;;;17.00;73.90;;;;;;5037817;28;20056;-79
2022/07/07 04:55:21;;;;;;;7.28;2.00;;;17.10;73.70;;;;;;5055014;28;20056;-82
2022/07/07 04:57:46;;;;;;;4.30;1.70;;;17.10;73.30;;;;;;5056277;28;20552;-85
2022/07/07 05:00:12;;;;;;;3.80;1.55;;;17.10;73.40;;;;;;5051896;28;20029;-83
2022/07/07 05:02:38;;;;;;;4.38;1.52;;;17.20;73.20;;;;;;5042459;28;20486;-83
2022/07/07 05:05:06;;;;;;;9.82;2.30;;;17.30;72.80;;;;;;5044343;28;20102;-83
2022/07/07 05:07:32;;;;;;;2.65;1.55;;;17.40;73.30;;;;;;5044452;28;20116;-83
2022/07/07 05:09:57;;;;;;;7.38;1.98;;;17.40;72.40;;;;;;5054215;28;20072;-83
2022/07/07 05:12:23;;;;;;;5.78;1.63;;;17.50;72.20;;;;;;5050393;28;20033;-83
2022/07/07 05:14:49;;;;;;;7.18;2.10;;;17.50;72.20;;;;;;5048605;28;20060;-83
2022/07/07 05:17:14;;;;;;;5.10;1.58;;;17.50;72.40;;;;;;5040881;28;20060;-84
2022/07/07 05:19:40;;;;;;;4.63;1.80;;;17.50;72.40;;;;;;5056069;28;20488;-83
2022/07/07 05:22:06;;;;;;;6.63;2.42;;;17.50;72.50;;;;;;5055103;28;20124;-84
2022/07/07 05:24:32;;;;;;;3.13;1.52;;;17.50;72.70;;;;;;5054827;28;20033;-84
2022/07/07 05:26:57;;;;;;;4.15;1.70;;;17.50;72.40;;;;;;5036199;28;20091;-81
2022/07/07 05:29:23;;;;;;;5.15;1.30;;;17.50;72.90;;;;;;5037582;28;20159;-86
2022/07/07 05:31:49;;;;;;;5.38;1.88;;;17.50;72.60;;;;;;5044073;28;20087;-83
2022/07/07 05:34:14;;;;;;;7.50;1.85;;;17.50;72.40;;;;;;5035844;28;20036;-87
2022/07/07 05:36:40;;;;;;;4.88;1.90;;;17.50;72.80;;;;;;5037827;28;20025;-85
2022/07/07 05:39:06;;;;;;;10.07;2.05;;;17.50;73.60;;;;;;5044627;28;20107;-85
2022/07/07 05:41:31;;;;;;;4.88;1.60;;;17.50;73.50;;;;;;5035132;28;20045;-85
2022/07/07 05:43:57;;;;;;;8.57;2.28;;;17.50;73.70;;;;;;5044182;28;20036;-85
2022/07/07 05:46:23;;;;;;;7.55;2.00;;;17.60;73.60;;;;;;5054820;28;20031;-86
2022/07/07 05:48:48;;;;;;;5.45;2.10;;;17.70;73.70;;;;;;5055814;28;20029;-88
2022/07/07 05:51:14;;;;;;;5.32;2.17;;;17.80;73.50;;;;;;5053186;28;20551;-86
2022/07/07 05:53:40;;;;;;;6.38;1.75;;;17.90;73.70;;;;;;5054196;28;20041;-86
2022/07/07 05:56:06;;;;;;;5.60;2.03;;;18.00;73.10;;;;;;5047300;28;20032;-88
2022/07/07 05:58:32;;;;;;;7.90;1.95;;;18.20;73.00;;;;;;5033883;28;20069;-85
2022/07/07 06:00:57;;;;;;;9.23;2.28;;;18.20;73.10;;;;;;5044925;28;20066;-85
2022/07/07 06:03:23;;;;;;;7.30;2.42;;;18.30;72.80;;;;;;5055216;28;20522;-84
2022/07/07 06:05:50;;;;;;;2.80;1.58;;;18.40;72.70;;;;;;5048726;28;20111;-84
2022/07/07 06:08:17;;;;;;;6.35;1.95;;;18.40;73.00;;;;;;5041784;28;20033;-85
2022/07/07 06:10:43;;;;;;;6.97;2.05;;;18.60;72.50;;;;;;5037039;28;20029;-85
2022/07/07 06:13:09;;;;;;;9.40;2.20;;;18.70;72.30;;;;;;5047992;28;20037;-86
2022/07/07 06:15:35;;;;;;;4.50;1.85;;;18.80;72.10;;;;;;5052938;28;20083;-86
2022/07/07 06:18:04;;;;;;;5.20;1.55;;;18.80;72.00;;;;;;5054667;28;20025;-85
2022/07/07 06:20:30;;;;;;;4.63;1.73;;;18.90;72.00;;;;;;5042419;28;20064;-86
2022/07/07 06:22:56;;;;;;;5.68;1.92;;;19.00;72.40;;;;;;5034802;28;20024;-86
2022/07/07 06:25:22;;;;;;;7.22;1.92;;;19.10;71.70;;;;;;5038692;28;20021;-85
2022/07/07 06:27:48;;;;;;;7.88;2.30;;;19.20;71.70;;;;;;5062160;28;20576;-86
2022/07/07 06:30:14;;;;;;;8.07;1.92;;;19.40;71.70;;;;;;5056377;28;20483;-86
2022/07/07 06:32:40;;;;;;;5.03;1.63;;;19.50;71.30;;;;;;5074757;28;20021;-86
2022/07/07 06:35:06;;;;;;;6.28;2.28;;;19.70;71.50;;;;;;5052274;28;20029;-86
2022/07/07 06:37:32;;;;;;;3.70;1.80;;;19.80;70.60;;;;;;5054994;28;20013;-86
2022/07/07 06:39:58;;;;;;;6.68;2.10;;;19.80;70.70;;;;;;5054858;28;20040;-86
2022/07/07 06:42:23;;;;;;;3.95;1.90;;;19.90;70.60;;;;;;5051999;28;20116;-86
2022/07/07 06:44:49;;;;;;;5.07;1.83;;;20.00;70.20;;;;;;5054199;28;20029;-86
2022/07/07 06:47:15;;;;;;;5.80;2.17;;;20.10;70.20;;;;;;5045631;28;20033;-86
2022/07/07 06:49:40;;;;;;;2.38;1.58;;;20.00;70.70;;;;;;5068043;28;20044;-85
2022/07/07 06:52:07;;;;;;;5.45;2.42;;;20.10;70.40;;;;;;5054109;28;20025;-85
2022/07/07 06:54:32;;;;;;;4.50;1.40;;;20.30;70.10;;;;;;5033878;28;20416;-86
2022/07/07 06:56:59;;;;;;;6.20;2.22;;;20.40;69.80;;;;;;5036109;28;20103;-86
2022/07/07 06:59:24;;;;;;;6.07;2.38;;;20.50;69.50;;;;;;5038755;28;20029;-86
2022/07/07 07:01:50;;;;;;;4.47;1.60;;;20.80;69.00;;;;;;5055790;28;20112;-86
2022/07/07 07:04:16;;;;;;;5.78;2.00;;;20.80;69.10;;;;;;5048882;28;20116;-86
2022/07/07 07:06:42;;;;;;;7.22;2.47;;;20.80;69.00;;;;;;5049027;28;20034;-86
2022/07/07 07:09:09;;;;;;;7.70;2.35;;;21.20;68.40;;;;;;5039994;28;20060;-86
2022/07/07 07:11:35;;;;;;;8.35;2.10;;;21.30;67.70;;;;;;5047684;28;20029;-87
2022/07/07 07:14:02;;;;;;;7.75;2.33;;;21.50;66.90;;;;;;5057970;28;20096;-88
2022/07/07 07:16:28;;;;;;;6.05;2.63;;;21.60;66.30;;;;;;5044717;28;20059;-90
2022/07/07 07:18:54;;;;;;;4.93;1.80;;;21.60;66.60;;;;;;5057552;28;20025;-90
2022/07/07 07:21:20;;;;;;;5.90;2.05;;;21.70;66.40;;;;;;5052269;28;20083;-88
2022/07/07 07:23:46;;;;;;;3.30;1.25;;;21.70;66.00;;;;;;5038776;28;20538;-87
2022/07/07 07:26:11;;;;;;;4.10;1.60;;;21.70;66.20;;;;;;5056871;28;20108;-85
2022/07/07 07:28:37;;;;;;;4.85;1.65;;;21.80;65.60;;;;;;5056644;28;20024;-86
2022/07/07 07:31:04;;;;;;;8.65;1.52;;;22.00;65.30;;;;;;5048323;28;20029;-87
2022/07/07 07:33:30;;;;;;;7.50;2.25;;;22.20;64.70;;;;;;5057068;28;20028;-85
2022/07/07 07:35:57;;;;;;;7.00;1.40;;;22.20;64.50;;;;;;5051195;28;20120;-87
2022/07/07 07:38:23;;;;;;;3.40;1.55;;;22.40;64.10;;;;;;5048259;28;20032;-81
2022/07/07 07:40:48;;;;;;;4.28;1.50;;;22.30;64.10;;;;;;5053526;28;20029;-83
2022/07/07 07:43:14;;;;;;;3.95;1.60;;;22.10;64.50;;;;;;5050098;28;20542;-92
2022/07/07 07:45:39;;;;;;;2.30;1.38;;;22.10;65.10;;;;;;5056290;28;20032;-88
2022/07/07 07:48:05;;;;;;;7.05;2.55;;;22.10;64.90;;;;;;5046916;28;20498;-85
2022/07/07 07:50:32;;;;;;;4.88;1.63;;;22.00;65.10;;;;;;5043732;28;20437;-85
2022/07/07 07:52:58;;;;;;;3.85;1.80;;;22.30;64.80;;;;;;5041504;28;20032;-84
2022/07/07 07:55:25;;;;;;;4.18;1.30;;;23.50;62.90;;;;;;5046927;28;20510;-86
2022/07/07 07:57:51;;;;;;;4.50;1.70;;;24.10;58.70;;;;;;5047011;28;20028;-85
2022/07/07 08:00:21;;;;;;;4.75;1.40;;;24.10;59.00;;;;;;5047402;28;20025;-88
2022/07/07 08:02:47;;;;;;;5.43;1.60;;;24.80;57.40;;;;;;5042861;28;20037;-86
2022/07/07 08:05:18;;;;;;;6.53;1.58;;;24.50;56.90;;;;;;5044121;28;20053;-87
2022/07/07 08:07:44;;;;;;;4.88;1.40;;;24.90;55.80;;;;;;5040650;28;20112;-87
2022/07/07 08:10:11;;;;;;;5.28;1.88;;;24.50;56.80;;;;;;5044424;28;20116;-89
2022/07/07 08:12:37;;;;;;;2.95;1.48;;;23.80;58.00;;;;;;5041435;28;20017;-88
2022/07/07 08:15:04;;;;;;;5.35;1.90;;;23.30;59.10;;;;;;5043973;28;20032;-85
2022/07/07 08:17:30;;;;;;;3.65;1.40;;;23.20;59.70;;;;;;5045169;28;20021;-85
2022/07/07 08:19:56;;;;;;;4.57;1.60;;;23.00;60.60;;;;;;5043900;28;20081;-86
2022/07/07 08:22:22;;;;;;;4.90;1.83;;;22.90;60.70;;;;;;5044553;28;20021;-86
2022/07/07 08:24:47;;;;;;;2.10;1.45;;;22.90;61.00;;;;;;5045042;28;20896;-85
2022/07/07 08:27:14;;;;;;;1.90;1.35;;;22.70;61.40;;;;;;5045937;28;20025;-87
2022/07/07 08:29:40;;;;;;;5.93;1.67;;;22.60;62.00;;;;;;5043698;28;20033;-87
2022/07/07 08:32:07;;;;;;;5.90;1.60;;;22.50;62.20;;;;;;5047274;28;20052;-87
2022/07/07 08:34:34;;;;;;;5.00;1.38;;;22.40;62.30;;;;;;5064457;28;20523;-86
2022/07/07 08:36:59;;;;;;;5.68;1.40;;;22.30;62.70;;;;;;5042717;28;20021;-87
2022/07/07 08:39:25;;;;;;;2.65;1.50;;;22.30;62.70;;;;;;5041439;28;20124;-87
2022/07/07 08:41:51;;;;;;;3.33;1.45;;;22.30;62.90;;;;;;5041918;28;20102;-86
2022/07/07 08:44:18;;;;;;;3.67;1.77;;;22.30;62.90;;;;;;5048940;28;20116;-87
2022/07/07 08:46:44;;;;;;;2.83;1.58;;;23.20;61.70;;;;;;5043485;28;20082;-87
2022/07/07 08:49:10;;;;;;;2.63;1.33;;;25.10;57.60;;;;;;5043440;28;20039;-88
2022/07/07 08:51:44;;;;;;;3.58;0.98;;;26.80;53.90;;;;;;5047852;28;20021;-87
2022/07/07 08:54:11;;;;;;;3.35;0.77;;;27.30;50.40;;;;;;5046209;28;20025;-89
2022/07/07 08:56:40;;;;;;;3.30;1.15;;;29.20;46.20;;;;;;5048763;28;20025;-88
2022/07/07 08:59:13;;;;;;;2.70;1.17;;;28.30;47.60;;;;;;5040120;28;20034;-86
2022/07/07 09:01:39;;;;;;;5.90;1.48;;;27.30;48.30;;;;;;5035575;28;20136;-87
2022/07/07 09:04:05;;;;;;;2.50;0.95;;;26.90;50.10;;;;;;5043280;28;20053;-86
2022/07/07 09:06:31;;;;;;;3.40;0.90;;;28.90;46.50;;;;;;5045587;28;20079;-87
2022/07/07 09:08:58;;;;;;;4.70;1.10;;;28.20;47.00;;;;;;5038218;28;20028;-86
2022/07/07 09:11:28;;;;;;;5.88;1.20;;;27.30;48.20;;;;;;5042769;28;20040;-85
2022/07/07 09:14:08;;;;;;;4.10;0.93;;;26.60;49.20;;;;;;5044300;28;20025;-86
2022/07/07 09:16:38;;;;;;;3.70;1.02;;;25.90;49.90;;;;;;5043642;28;20479;-85
2022/07/07 09:19:20;;;;;;;3.00;1.10;;;25.30;51.80;;;;;;5041656;28;20059;-84
2022/07/07 09:21:46;;;;;;;5.90;1.17;;;25.00;53.20;;;;;;5040842;28;20633;-84
2022/07/07 09:24:12;;;;;;;3.17;1.45;;;24.90;53.90;;;;;;5039491;28;20033;-84
2022/07/07 09:26:45;;;;;;;3.40;1.15;;;24.70;54.90;;;;;;5050220;28;20023;-87
2022/07/07 09:29:19;;;;;;;2.95;0.95;;;24.60;54.50;;;;;;5040386;28;20033;-83
2022/07/07 09:31:54;;;;;;;6.25;1.23;;;24.60;55.40;;;;;;5040023;28;20051;-85
2022/07/07 09:34:22;;;;;;;3.90;1.58;;;24.80;54.90;;;;;;5034600;28;20041;-85
2022/07/07 09:39:39;;;;;;;3.83;1.50;;;25.10;54.10;;;;;;5035854;28;20121;-84
2022/07/07 09:42:26;;;;;;;5.03;1.60;;;24.90;54.30;;;;;;5048217;28;20112;-86
2022/07/07 09:44:57;;;;;;;2.13;1.35;;;24.80;54.00;;;;;;5039240;28;20037;-85
2022/07/07 09:47:24;;;;;;;4.72;1.63;;;24.80;54.90;;;;;;5032707;28;20033;-84
2022/07/07 09:50:11;;;;;;;2.70;1.17;;;24.90;55.00;;;;;;5033551;28;20037;-85
2022/07/07 09:52:45;;;;;;;5.50;1.10;;;25.00;54.60;;;;;;5033293;28;20030;-85
2022/07/07 09:55:12;;;;;;;5.65;1.55;;;25.00;54.50;;;;;;5033597;28;20022;-84
2022/07/07 09:57:39;;;;;;;9.05;1.30;;;24.90;54.50;;;;;;5034756;28;20032;-85
2022/07/07 10:00:07;;;;;;;3.60;1.30;;;24.80;54.90;;;;;;5039412;28;20059;-85
2022/07/07 10:02:36;;;;;;;4.63;1.65;;;24.60;55.20;;;;;;5053999;28;20037;-85
2022/07/07 10:05:03;;;;;;;3.28;1.10;;;24.50;55.30;;;;;;5049350;28;20044;-84
2022/07/07 10:07:32;;;;;;;3.22;1.60;;;24.30;55.70;;;;;;5050807;28;20838;-85
2022/07/07 10:10:05;;;;;;;3.20;1.25;;;24.30;55.90;;;;;;5050911;28;20028;-85
2022/07/07 10:12:32;;;;;;;4.15;1.15;;;24.40;56.20;;;;;;5050845;28;20024;-84
2022/07/07 10:15:00;;;;;;;2.35;0.90;;;24.40;55.80;;;;;;5053984;28;20033;-85
2022/07/07 10:17:30;;;;;;;2.42;0.98;;;24.50;55.90;;;;;;5055109;28;20033;-85
2022/07/07 10:19:59;;;;;;;2.90;1.17;;;24.60;55.70;;;;;;5053768;28;20017;-84
2022/07/07 10:22:28;;;;;;;4.55;1.10;;;24.70;56.10;;;;;;5035828;28;20107;-85
2022/07/07 10:24:55;;;;;;;3.80;1.77;;;24.80;55.30;;;;;;5034837;28;20565;-84
2022/07/07 10:27:24;;;;;;;2.58;1.10;;;24.80;55.50;;;;;;5033912;28;20315;-85
2022/07/07 10:29:52;;;;;;;4.78;1.27;;;24.80;55.20;;;;;;5033924;28;20065;-85
2022/07/07 10:32:22;;;;;;;2.70;1.33;;;24.90;55.00;;;;;;5037359;28;20025;-85
2022/07/07 10:34:49;;;;;;;2.83;1.05;;;24.90;54.90;;;;;;5039158;28;20112;-85
2022/07/07 10:37:15;;;;;;;4.30;1.25;;;25.90;53.90;;;;;;5038757;28;20021;-85
2022/07/07 10:39:43;;;;;;;3.28;1.23;;;26.20;52.40;;;;;;5039201;28;20109;-85
2022/07/07 10:42:15;;;;;;;2.25;0.70;;;26.20;52.20;;;;;;5049838;28;20056;-85
2022/07/07 10:44:43;;;;;;;2.20;1.00;;;26.00;52.20;;;;;;5058919;28;20044;-85
2022/07/07 10:47:12;;;;;;;2.65;1.20;;;25.60;52.80;;;;;;5057612;28;20021;-84
2022/07/07 10:49:42;;;;;;;3.55;1.15;;;25.50;53.20;;;;;;5057732;28;20029;-85
2022/07/07 10:52:12;;;;;;;;;;;25.60;53.20;;;;;;5041843;28;20033;-85
2022/07/07 10:54:40;;;;;;;4.10;1.20;;;25.80;52.90;;;;;;5037656;28;20510;-85
2022/07/07 10:57:18;;;;;;;2.15;1.00;;;25.80;52.90;;;;;;5038743;28;20033;-84
2022/07/07 11:00:06;;;;;;;1.95;1.08;;;26.00;52.30;;;;;;5041056;28;20017;-85
2022/07/07 11:02:49;;;;;;;2.53;0.68;;;26.20;52.40;;;;;;5056783;28;20151;-85
2022/07/07 11:05:15;;;;;;;2.78;0.90;;;26.50;50.60;;;;;;5057255;28;20029;-85
2022/07/07 11:07:43;;;;;;;3.03;1.00;;;26.70;50.70;;;;;;5057348;28;20033;-86
2022/07/07 11:10:11;;;;;;;2.13;0.85;;;27.00;49.80;;;;;;5044116;28;20061;-85
2022/07/07 11:12:47;;;;;;;3.92;0.93;;;27.00;49.50;;;;;;5056349;28;20057;-86
2022/07/07 11:15:22;;;;;;;1.67;0.75;;;27.20;49.70;;;;;;5058261;28;20017;-87
2022/07/07 11:17:57;;;;;;;2.85;0.63;;;27.10;48.90;;;;;;5056795;28;20047;-86
2022/07/07 11:20:25;;;;;;;2.97;0.70;;;27.00;48.90;;;;;;5057251;28;20029;-87
2022/07/07 11:22:53;;;;;;;2.88;0.75;;;27.10;49.00;;;;;;5052700;28;20175;-86
2022/07/07 11:25:22;;;;;;;2.63;0.70;;;27.30;49.00;;;;;;5038184;28;20029;-85
2022/07/07 11:27:49;;;;;;;3.42;0.95;;;27.50;48.50;;;;;;5038215;28;20025;-86
2022/07/07 11:30:20;;;;;;;4.10;1.33;;;27.50;48.80;;;;;;5037144;28;20052;-89
2022/07/07 11:32:46;;;;;;;3.65;1.13;;;27.40;48.50;;;;;;5037987;28;20112;-85
2022/07/07 11:35:13;;;;;;;3.10;1.10;;;27.30;49.40;;;;;;5036369;28;20093;-85
2022/07/07 11:37:45;;;;;;;2.63;1.00;;;27.30;49.40;;;;;;5036892;28;20022;-85
2022/07/07 11:40:13;;;;;;;3.28;0.93;;;27.20;49.50;;;;;;5037053;28;20395;-85
2022/07/07 11:42:41;;;;;;;3.72;0.93;;;27.20;49.70;;;;;;5037066;28;20022;-85
2022/07/07 11:45:28;;;;;;;2.03;0.90;;;27.20;50.30;;;;;;5037723;28;20034;-86
2022/07/07 11:48:02;;;;;;;4.30;1.13;;;27.10;49.40;;;;;;5037781;28;20029;-85
2022/07/07 11:50:32;;;;;;;4.28;1.10;;;27.10;49.20;;;;;;5038021;28;20018;-84
2022/07/07 11:53:00;;;;;;;1.42;0.70;;;27.10;49.50;;;;;;5036093;28;20037;-84
2022/07/07 11:55:27;;;;;;;3.42;1.20;;;27.10;49.80;;;;;;5037483;28;20026;-84
2022/07/07 11:58:01;;;;;;;2.45;0.80;;;27.00;49.70;;;;;;5037534;28;20021;-85
2022/07/07 12:00:29;;;;;;;3.15;0.93;;;27.20;49.70;;;;;;5043397;28;20025;-85
2022/07/07 12:03:00;;;;;;;1.20;0.80;;;27.30;50.00;;;;;;5057542;28;20422;-85
2022/07/07 12:05:32;;;;;;;3.83;1.23;;;27.30;50.10;;;;;;5051989;28;20751;-84
2022/07/07 12:08:06;;;;;;;4.10;1.00;;;27.30;49.30;;;;;;5037440;28;20032;-85
2022/07/07 12:10:41;;;;;;;2.65;0.90;;;27.30;49.10;;;;;;5037913;28;20025;-86
2022/07/07 12:13:13;;;;;;;3.13;1.30;;;27.40;49.40;;;;;;5038097;28;20097;-86
2022/07/07 12:15:41;;;;;;;2.28;1.00;;;27.50;49.30;;;;;;5037412;28;20021;-84
2022/07/07 12:18:09;;;;;;;4.13;1.40;;;27.80;49.70;;;;;;5049983;28;20090;-85
2022/07/07 12:20:37;;;;;;;2.00;0.80;;;27.80;49.40;;;;;;5055359;28;20135;-86
2022/07/07 12:23:06;;;;;;;1.90;0.82;;;27.70;48.80;;;;;;5057395;28;20035;-85
2022/07/07 12:25:33;;;;;;;1.30;0.60;;;27.60;48.20;;;;;;5047496;28;20026;-86
2022/07/07 12:28:02;;;;;;;3.63;0.73;;;27.90;48.10;;;;;;5035590;28;20124;-86
2022/07/07 12:30:36;;;;;;;1.10;0.50;;;28.10;47.50;;;;;;5036819;28;20025;-85
2022/07/07 12:33:04;;;;;;;1.52;0.50;;;28.20;47.60;;;;;;5035611;28;20268;-85
2022/07/07 12:35:38;;;;;;;2.17;0.60;;;28.30;47.00;;;;;;5035796;28;20025;-87
2022/07/07 12:38:06;;;;;;;2.10;0.65;;;28.20;46.30;;;;;;5036958;28;20018;-86
2022/07/07 12:40:36;;;;;;;2.00;0.70;;;28.00;47.30;;;;;;5038261;28;20051;-86
2022/07/07 12:43:10;;;;;;;3.00;1.05;;;28.00;48.10;;;;;;5055557;28;20033;-86
2022/07/07 12:45:38;;;;;;;2.42;0.77;;;28.00;48.20;;;;;;5055478;28;20037;-85
2022/07/07 12:48:14;;;;;;;7.38;1.25;;;27.90;47.50;;;;;;5050591;28;20025;-86
2022/07/07 12:50:40;;;;;;;2.30;0.63;;;27.80;46.80;;;;;;5036421;28;20017;-87
2022/07/07 12:53:07;;;;;;;2.50;0.85;;;27.70;47.60;;;;;;5036979;28;20030;-86